createdAt,value
2023-03-05T00:02:30.451Z,5.3
2023-03-05T00:12:30.393Z,5.2
2023-03-05T00:22:30.337Z,5.1
2023-03-05T00:32:30.416Z,5
2023-03-05T00:42:30.358Z,4.9
2023-03-05T00:52:30.308Z,5.1
2023-03-05T01:02:30.317Z,5.2
2023-03-05T01:12:30.297Z,5.2
2023-03-05T01:22:30.241Z,5.2
2023-03-05T01:32:30.237Z,5.2
2023-03-05T01:42:30.247Z,5
2023-03-05T01:52:30.188Z,4.9
2023-03-05T02:02:30.197Z,4.8
2023-03-05T02:12:30.203Z,4.9
2023-03-05T02:22:30.146Z,4.9
2023-03-05T02:32:30.195Z,4.8
2023-03-05T02:42:30.171Z,4.8
2023-03-05T02:52:30.117Z,4.7
2023-03-05T03:02:30.154Z,4.6
2023-03-05T03:12:30.154Z,4.5
2023-03-05T03:22:30.088Z,4.6
2023-03-05T03:32:30.188Z,4.6
2023-03-05T03:42:30.103Z,4.5
2023-03-05T03:52:30.081Z,4.4
2023-03-05T04:02:30.165Z,4.4
2023-03-05T04:12:30.067Z,4.2
2023-03-05T04:22:30.069Z,4.1
2023-03-05T04:32:30.123Z,4
2023-03-05T04:42:30.011Z,4.1
2023-03-05T04:52:29.980Z,4.1
2023-03-05T05:02:30.083Z,4.1
2023-03-05T05:12:29.977Z,4.1
2023-03-05T05:22:29.967Z,4.1
2023-03-05T05:32:29.917Z,4
2023-03-05T05:42:29.942Z,4.1
2023-03-05T05:52:29.915Z,4.1
2023-03-05T06:02:29.914Z,4.1
2023-03-05T06:12:29.961Z,4.1
2023-03-05T06:22:29.868Z,3.9
2023-03-05T06:32:29.962Z,3.9
2023-03-05T06:42:29.904Z,3.9
2023-03-05T06:52:29.853Z,3.9
2023-03-05T07:02:29.957Z,4
2023-03-05T07:12:29.848Z,4.2
2023-03-05T07:12:29.853Z,4.2
2023-03-05T07:22:29.850Z,4.4
2023-03-05T07:32:29.929Z,4.5
2023-03-05T07:42:29.829Z,4.6
2023-03-05T07:52:29.798Z,4.7
2023-03-05T08:02:29.888Z,4.9
2023-03-05T08:12:29.799Z,5.1
2023-03-05T08:22:29.723Z,5.4
2023-03-05T08:32:29.874Z,5.8
2023-03-05T08:42:29.761Z,6
2023-03-05T08:52:29.692Z,6.5
2023-03-05T09:02:29.752Z,6.7
2023-03-05T09:12:29.704Z,7.1
2023-03-05T09:22:29.632Z,7.4
2023-03-05T09:32:29.775Z,8
2023-03-05T09:42:29.666Z,9
2023-03-05T09:52:29.591Z,9.8
2023-03-05T10:02:29.583Z,10.6
2023-03-05T10:12:29.601Z,12.3
2023-03-05T10:22:29.548Z,12.6
2023-03-05T10:32:29.646Z,13.7
2023-03-05T10:42:31.186Z,15.1
2023-03-05T10:52:29.493Z,15.3
2023-03-05T11:02:29.566Z,16
2023-03-05T11:12:29.506Z,15.8
2023-03-05T11:22:29.440Z,16.5
2023-03-05T11:32:29.542Z,16.4
2023-03-05T11:42:29.424Z,16.9
2023-03-05T11:52:29.351Z,16.9
2023-03-05T12:02:29.479Z,16.9
2023-03-05T12:12:29.365Z,16.6
2023-03-05T12:22:29.327Z,17.2
2023-03-05T12:32:29.426Z,17.2
2023-03-05T12:42:29.299Z,17.1
2023-03-05T12:52:29.267Z,17.3
2023-03-05T13:02:29.264Z,17.3
2023-03-05T13:12:29.243Z,17.4
2023-03-05T13:22:29.194Z,17.6
2023-03-05T13:32:29.255Z,18.1
2023-03-05T13:42:29.194Z,18.5
2023-03-05T13:52:29.130Z,18.9
2023-03-05T14:02:29.535Z,18.7
2023-03-05T14:12:29.127Z,18.6
2023-03-05T14:22:29.068Z,18.1
2023-03-05T14:32:29.112Z,18
2023-03-05T14:42:29.065Z,17.9
2023-03-05T14:52:29.046Z,17.3
2023-03-05T15:02:29.085Z,16.7
2023-03-05T15:12:29.018Z,16.3
2023-03-05T15:22:28.956Z,16
2023-03-05T15:32:29.083Z,15.8
2023-03-05T15:42:28.947Z,15.4
2023-03-05T15:52:28.915Z,14.8
2023-03-05T16:02:28.912Z,14.4
2023-03-05T16:12:28.872Z,13.8
2023-03-05T16:22:28.821Z,13.1
2023-03-05T16:32:28.923Z,12.4
2023-03-05T16:42:28.839Z,11.7
2023-03-05T16:52:28.768Z,11.1
2023-03-05T17:02:28.808Z,10.4
2023-03-05T17:12:28.806Z,9.8
2023-03-05T17:22:28.750Z,9.1
2023-03-05T17:32:28.788Z,8.7
2023-03-05T17:42:28.731Z,8.3
2023-03-05T17:52:28.701Z,7.9
2023-03-05T18:02:28.714Z,7.5
2023-03-05T18:12:28.700Z,7.2
2023-03-05T18:22:28.646Z,7.1
2023-03-05T18:32:28.777Z,6.9
2023-03-05T18:42:28.651Z,6.8
2023-03-05T18:52:28.617Z,6.5
2023-03-05T19:02:28.622Z,6.3
2023-03-05T19:12:28.616Z,6.2
2023-03-05T19:22:28.558Z,6
2023-03-05T19:32:28.638Z,5.9
2023-03-05T19:42:28.525Z,5.7
2023-03-05T19:52:28.502Z,5.4
2023-03-05T20:02:28.559Z,5.3
2023-03-05T20:12:28.472Z,5.1
2023-03-05T20:22:28.496Z,4.9
2023-03-05T20:32:28.536Z,4.7
2023-03-05T20:42:28.480Z,4.4
2023-03-05T20:52:28.434Z,4.1
2023-03-05T21:02:28.436Z,3.9
2023-03-05T21:12:28.454Z,3.7
2023-03-05T21:22:28.391Z,3.5
2023-03-05T21:32:28.440Z,3.4
2023-03-05T21:42:28.403Z,3.2
2023-03-05T21:52:28.372Z,3
2023-03-05T22:02:28.360Z,2.8
2023-03-05T22:12:28.380Z,2.6
2023-03-05T22:22:28.313Z,2.3
2023-03-05T22:32:28.413Z,2.2
2023-03-05T22:42:28.354Z,2.1
2023-03-05T22:52:28.282Z,1.9
2023-03-05T23:02:28.300Z,1.7
2023-03-05T23:12:28.283Z,1.5
2023-03-05T23:22:28.279Z,1.3
2023-03-05T23:32:28.280Z,1.4
2023-03-05T23:42:28.260Z,1.3
2023-03-05T23:52:28.225Z,1.1
